sensor_id;sensor_type;location;lat;lon;timestamp;P1;durP1;ratioP1;P2;durP2;ratioP2
20776;SDS011;10548;47.504;8.248;2024-01-10T00:02:19;59.77;;;28.53;;
20776;SDS011;10548;47.504;8.248;2024-01-10T00:04:47;53.10;;;26.50;;
20776;SDS011;10548;47.504;8.248;2024-01-10T00:07:14;55.87;;;28.43;;
20776;SDS011;10548;47.504;8.248;2024-01-10T00:09:41;59.63;;;29.00;;
20776;SDS011;10548;47.504;8.248;2024-01-10T00:12:08;57.27;;;28.30;;
20776;SDS011;10548;47.504;8.248;2024-01-10T00:14:35;58.60;;;30.37;;
20776;SDS011;10548;47.504;8.248;2024-01-10T00:17:02;59.27;;;28.10;;
20776;SDS011;10548;47.504;8.248;2024-01-10T00:19:30;56.70;;;28.90;;
20776;SDS011;10548;47.504;8.248;2024-01-10T00:21:57;58.60;;;28.97;;
20776;SDS011;10548;47.504;8.248;2024-01-10T00:24:24;59.63;;;29.00;;
20776;SDS011;10548;47.504;8.248;2024-01-10T00:26:51;55.03;;;27.63;;
20776;SDS011;10548;47.504;8.248;2024-01-10T00:29:18;54.27;;;27.77;;
20776;SDS011;10548;47.504;8.248;2024-01-10T00:31:46;58.50;;;27.57;;
20776;SDS011;10548;47.504;8.248;2024-01-10T00:34:13;56.67;;;28.37;;
20776;SDS011;10548;47.504;8.248;2024-01-10T00:36:40;58.00;;;27.27;;
20776;SDS011;10548;47.504;8.248;2024-01-10T00:39:07;54.20;;;27.83;;
20776;SDS011;10548;47.504;8.248;2024-01-10T00:41:34;49.70;;;25.03;;
20776;SDS011;10548;47.504;8.248;2024-01-10T00:44:01;60.23;;;30.30;;
20776;SDS011;10548;47.504;8.248;2024-01-10T00:46:28;56.50;;;28.47;;
20776;SDS011;10548;47.504;8.248;2024-01-10T00:48:56;54.80;;;28.37;;
20776;SDS011;10548;47.504;8.248;2024-01-10T00:51:23;64.90;;;32.10;;
20776;SDS011;10548;47.504;8.248;2024-01-10T00:53:50;60.47;;;30.43;;
20776;SDS011;10548;47.504;8.248;2024-01-10T00:56:17;59.60;;;29.10;;
20776;SDS011;10548;47.504;8.248;2024-01-10T00:58:44;59.83;;;29.20;;
20776;SDS011;10548;47.504;8.248;2024-01-10T01:01:11;59.97;;;29.73;;
20776;SDS011;10548;47.504;8.248;2024-01-10T01:03:38;54.80;;;28.53;;
20776;SDS011;10548;47.504;8.248;2024-01-10T01:06:06;56.37;;;28.93;;
20776;SDS011;10548;47.504;8.248;2024-01-10T01:08:33;54.30;;;27.47;;
20776;SDS011;10548;47.504;8.248;2024-01-10T01:11:00;58.63;;;30.50;;
20776;SDS011;10548;47.504;8.248;2024-01-10T01:13:27;65.47;;;30.93;;
20776;SDS011;10548;47.504;8.248;2024-01-10T01:15:54;56.20;;;27.77;;
20776;SDS011;10548;47.504;8.248;2024-01-10T01:18:21;59.23;;;30.30;;
20776;SDS011;10548;47.504;8.248;2024-01-10T01:20:49;68.50;;;32.37;;
20776;SDS011;10548;47.504;8.248;2024-01-10T01:23:16;56.37;;;29.53;;
20776;SDS011;10548;47.504;8.248;2024-01-10T01:25:58;63.63;;;31.80;;
20776;SDS011;10548;47.504;8.248;2024-01-10T01:28:25;58.07;;;29.27;;
20776;SDS011;10548;47.504;8.248;2024-01-10T01:30:52;60.23;;;29.77;;
20776;SDS011;10548;47.504;8.248;2024-01-10T01:33:20;65.73;;;32.07;;
20776;SDS011;10548;47.504;8.248;2024-01-10T01:35:47;59.47;;;29.73;;
20776;SDS011;10548;47.504;8.248;2024-01-10T01:38:14;61.67;;;30.77;;
20776;SDS011;10548;47.504;8.248;2024-01-10T01:40:41;66.37;;;32.40;;
20776;SDS011;10548;47.504;8.248;2024-01-10T01:43:21;70.13;;;32.83;;
20776;SDS011;10548;47.504;8.248;2024-01-10T01:45:51;58.37;;;28.33;;
20776;SDS011;10548;47.504;8.248;2024-01-10T01:48:22;67.33;;;32.67;;
20776;SDS011;10548;47.504;8.248;2024-01-10T01:50:52;66.37;;;32.33;;
20776;SDS011;10548;47.504;8.248;2024-01-10T01:53:24;61.23;;;29.60;;
20776;SDS011;10548;47.504;8.248;2024-01-10T01:55:53;61.43;;;30.03;;
20776;SDS011;10548;47.504;8.248;2024-01-10T01:58:20;63.80;;;31.97;;
20776;SDS011;10548;47.504;8.248;2024-01-10T02:00:48;60.13;;;30.20;;
20776;SDS011;10548;47.504;8.248;2024-01-10T02:03:16;62.93;;;29.23;;
20776;SDS011;10548;47.504;8.248;2024-01-10T02:05:46;60.83;;;29.27;;
20776;SDS011;10548;47.504;8.248;2024-01-10T02:08:14;63.60;;;31.43;;
20776;SDS011;10548;47.504;8.248;2024-01-10T02:10:41;61.30;;;30.40;;
20776;SDS011;10548;47.504;8.248;2024-01-10T02:13:09;65.07;;;31.40;;
20776;SDS011;10548;47.504;8.248;2024-01-10T02:15:37;63.43;;;31.43;;
20776;SDS011;10548;47.504;8.248;2024-01-10T02:18:05;62.93;;;30.37;;
20776;SDS011;10548;47.504;8.248;2024-01-10T02:20:32;65.23;;;30.93;;
20776;SDS011;10548;47.504;8.248;2024-01-10T02:23:00;65.67;;;32.23;;
20776;SDS011;10548;47.504;8.248;2024-01-10T02:25:28;63.77;;;29.50;;
20776;SDS011;10548;47.504;8.248;2024-01-10T02:27:55;58.53;;;27.37;;
20776;SDS011;10548;47.504;8.248;2024-01-10T02:30:22;66.10;;;31.03;;
20776;SDS011;10548;47.504;8.248;2024-01-10T02:32:50;58.00;;;28.80;;
20776;SDS011;10548;47.504;8.248;2024-01-10T02:35:17;62.47;;;30.50;;
20776;SDS011;10548;47.504;8.248;2024-01-10T02:37:44;64.50;;;31.20;;
20776;SDS011;10548;47.504;8.248;2024-01-10T02:40:11;64.33;;;31.03;;
20776;SDS011;10548;47.504;8.248;2024-01-10T02:42:39;67.33;;;30.80;;
20776;SDS011;10548;47.504;8.248;2024-01-10T02:45:06;59.47;;;28.83;;
20776;SDS011;10548;47.504;8.248;2024-01-10T02:47:33;64.97;;;30.60;;
20776;SDS011;10548;47.504;8.248;2024-01-10T02:50:01;65.97;;;30.90;;
20776;SDS011;10548;47.504;8.248;2024-01-10T02:52:28;59.07;;;31.10;;
20776;SDS011;10548;47.504;8.248;2024-01-10T02:54:55;64.30;;;32.67;;
20776;SDS011;10548;47.504;8.248;2024-01-10T02:57:22;63.67;;;31.80;;
20776;SDS011;10548;47.504;8.248;2024-01-10T02:59:49;67.17;;;31.27;;
20776;SDS011;10548;47.504;8.248;2024-01-10T03:02:16;61.93;;;30.37;;
20776;SDS011;10548;47.504;8.248;2024-01-10T03:04:44;62.53;;;29.53;;
20776;SDS011;10548;47.504;8.248;2024-01-10T03:07:11;61.43;;;30.73;;
20776;SDS011;10548;47.504;8.248;2024-01-10T03:09:38;62.43;;;29.20;;
20776;SDS011;10548;47.504;8.248;2024-01-10T03:12:05;62.00;;;27.90;;
20776;SDS011;10548;47.504;8.248;2024-01-10T03:14:33;62.70;;;28.70;;
20776;SDS011;10548;47.504;8.248;2024-01-10T03:17:03;63.00;;;29.20;;
20776;SDS011;10548;47.504;8.248;2024-01-10T03:19:30;54.53;;;27.10;;
20776;SDS011;10548;47.504;8.248;2024-01-10T03:21:57;57.50;;;28.03;;
20776;SDS011;10548;47.504;8.248;2024-01-10T03:24:24;60.07;;;27.67;;
20776;SDS011;10548;47.504;8.248;2024-01-10T03:26:53;56.97;;;27.63;;
20776;SDS011;10548;47.504;8.248;2024-01-10T03:29:20;58.30;;;28.13;;
20776;SDS011;10548;47.504;8.248;2024-01-10T03:31:47;57.20;;;27.50;;
20776;SDS011;10548;47.504;8.248;2024-01-10T03:34:15;59.77;;;28.63;;
20776;SDS011;10548;47.504;8.248;2024-01-10T03:36:44;60.27;;;27.90;;
20776;SDS011;10548;47.504;8.248;2024-01-10T03:39:11;53.63;;;28.43;;
20776;SDS011;10548;47.504;8.248;2024-01-10T03:41:38;60.80;;;27.53;;
20776;SDS011;10548;47.504;8.248;2024-01-10T03:44:05;64.30;;;29.17;;
20776;SDS011;10548;47.504;8.248;2024-01-10T03:46:32;61.20;;;27.57;;
20776;SDS011;10548;47.504;8.248;2024-01-10T03:49:00;58.57;;;27.50;;
20776;SDS011;10548;47.504;8.248;2024-01-10T03:51:27;62.37;;;26.40;;
20776;SDS011;10548;47.504;8.248;2024-01-10T03:53:55;67.77;;;29.50;;
20776;SDS011;10548;47.504;8.248;2024-01-10T03:56:22;62.50;;;30.30;;
20776;SDS011;10548;47.504;8.248;2024-01-10T03:58:49;67.50;;;30.30;;
20776;SDS011;10548;47.504;8.248;2024-01-10T04:01:16;66.70;;;30.40;;
20776;SDS011;10548;47.504;8.248;2024-01-10T04:03:48;68.13;;;31.33;;
20776;SDS011;10548;47.504;8.248;2024-01-10T04:06:16;62.13;;;28.70;;
20776;SDS011;10548;47.504;8.248;2024-01-10T04:08:43;61.00;;;28.63;;
20776;SDS011;10548;47.504;8.248;2024-01-10T04:11:10;66.73;;;29.47;;
20776;SDS011;10548;47.504;8.248;2024-01-10T04:13:38;70.63;;;31.93;;
20776;SDS011;10548;47.504;8.248;2024-01-10T04:16:06;66.07;;;30.17;;
20776;SDS011;10548;47.504;8.248;2024-01-10T04:18:33;64.47;;;29.77;;
20776;SDS011;10548;47.504;8.248;2024-01-10T04:21:00;59.47;;;29.00;;
20776;SDS011;10548;47.504;8.248;2024-01-10T04:23:28;68.33;;;29.80;;
20776;SDS011;10548;47.504;8.248;2024-01-10T04:25:57;63.10;;;28.90;;
20776;SDS011;10548;47.504;8.248;2024-01-10T04:28:24;63.70;;;29.97;;
20776;SDS011;10548;47.504;8.248;2024-01-10T04:30:51;59.27;;;29.27;;
20776;SDS011;10548;47.504;8.248;2024-01-10T04:33:18;69.97;;;30.87;;
20776;SDS011;10548;47.504;8.248;2024-01-10T04:35:46;64.20;;;29.60;;
20776;SDS011;10548;47.504;8.248;2024-01-10T04:38:13;65.33;;;29.90;;
20776;SDS011;10548;47.504;8.248;2024-01-10T04:40:40;64.77;;;29.60;;
20776;SDS011;10548;47.504;8.248;2024-01-10T04:43:08;64.87;;;29.27;;
20776;SDS011;10548;47.504;8.248;2024-01-10T04:45:35;65.33;;;30.43;;
20776;SDS011;10548;47.504;8.248;2024-01-10T04:48:02;68.13;;;30.57;;
20776;SDS011;10548;47.504;8.248;2024-01-10T04:50:29;62.27;;;30.60;;
20776;SDS011;10548;47.504;8.248;2024-01-10T04:52:56;66.23;;;29.50;;
20776;SDS011;10548;47.504;8.248;2024-01-10T04:55:24;60.93;;;28.43;;
20776;SDS011;10548;47.504;8.248;2024-01-10T04:57:51;66.43;;;29.70;;
20776;SDS011;10548;47.504;8.248;2024-01-10T05:00:18;59.20;;;28.20;;
20776;SDS011;10548;47.504;8.248;2024-01-10T05:02:45;59.83;;;28.57;;
20776;SDS011;10548;47.504;8.248;2024-01-10T05:05:12;59.30;;;27.40;;
20776;SDS011;10548;47.504;8.248;2024-01-10T05:07:39;66.10;;;30.60;;
20776;SDS011;10548;47.504;8.248;2024-01-10T05:10:07;64.63;;;28.47;;
20776;SDS011;10548;47.504;8.248;2024-01-10T05:12:34;62.80;;;28.27;;
20776;SDS011;10548;47.504;8.248;2024-01-10T05:15:01;61.90;;;28.43;;
20776;SDS011;10548;47.504;8.248;2024-01-10T05:17:28;61.17;;;28.30;;
20776;SDS011;10548;47.504;8.248;2024-01-10T05:19:55;60.83;;;29.63;;
20776;SDS011;10548;47.504;8.248;2024-01-10T05:22:22;62.03;;;28.83;;
20776;SDS011;10548;47.504;8.248;2024-01-10T05:24:50;67.17;;;28.67;;
20776;SDS011;10548;47.504;8.248;2024-01-10T05:27:17;64.77;;;29.20;;
20776;SDS011;10548;47.504;8.248;2024-01-10T05:29:44;65.10;;;29.63;;
20776;SDS011;10548;47.504;8.248;2024-01-10T05:32:12;63.93;;;30.13;;
20776;SDS011;10548;47.504;8.248;2024-01-10T05:34:39;66.33;;;29.43;;
20776;SDS011;10548;47.504;8.248;2024-01-10T05:37:06;66.30;;;29.47;;
20776;SDS011;10548;47.504;8.248;2024-01-10T05:39:33;64.17;;;30.83;;
20776;SDS011;10548;47.504;8.248;2024-01-10T05:42:00;63.90;;;28.10;;
20776;SDS011;10548;47.504;8.248;2024-01-10T05:44:29;69.47;;;29.27;;
20776;SDS011;10548;47.504;8.248;2024-01-10T05:46:56;67.20;;;30.57;;
20776;SDS011;10548;47.504;8.248;2024-01-10T05:49:26;61.97;;;27.77;;
20776;SDS011;10548;47.504;8.248;2024-01-10T05:51:53;62.87;;;29.33;;
20776;SDS011;10548;47.504;8.248;2024-01-10T05:54:20;72.03;;;28.97;;
20776;SDS011;10548;47.504;8.248;2024-01-10T05:56:48;66.47;;;28.50;;
20776;SDS011;10548;47.504;8.248;2024-01-10T05:59:16;62.00;;;30.27;;
20776;SDS011;10548;47.504;8.248;2024-01-10T06:01:43;65.90;;;30.03;;
20776;SDS011;10548;47.504;8.248;2024-01-10T06:04:10;65.43;;;29.07;;
20776;SDS011;10548;47.504;8.248;2024-01-10T06:06:37;62.57;;;28.27;;
20776;SDS011;10548;47.504;8.248;2024-01-10T06:09:04;67.00;;;30.00;;
20776;SDS011;10548;47.504;8.248;2024-01-10T06:11:31;67.73;;;30.77;;
20776;SDS011;10548;47.504;8.248;2024-01-10T06:13:58;72.57;;;30.60;;
20776;SDS011;10548;47.504;8.248;2024-01-10T06:16:26;64.73;;;31.57;;
20776;SDS011;10548;47.504;8.248;2024-01-10T06:18:53;73.27;;;30.50;;
20776;SDS011;10548;47.504;8.248;2024-01-10T06:21:20;61.67;;;29.53;;
20776;SDS011;10548;47.504;8.248;2024-01-10T06:23:47;68.17;;;31.57;;
20776;SDS011;10548;47.504;8.248;2024-01-10T06:26:14;68.77;;;30.40;;
20776;SDS011;10548;47.504;8.248;2024-01-10T06:28:42;67.90;;;30.67;;
20776;SDS011;10548;47.504;8.248;2024-01-10T06:31:09;70.93;;;31.50;;
20776;SDS011;10548;47.504;8.248;2024-01-10T06:33:38;68.30;;;31.13;;
20776;SDS011;10548;47.504;8.248;2024-01-10T06:36:05;66.43;;;29.53;;
20776;SDS011;10548;47.504;8.248;2024-01-10T06:38:32;62.43;;;29.23;;
20776;SDS011;10548;47.504;8.248;2024-01-10T06:41:00;63.03;;;29.47;;
20776;SDS011;10548;47.504;8.248;2024-01-10T06:43:27;62.20;;;28.73;;
20776;SDS011;10548;47.504;8.248;2024-01-10T06:45:55;61.03;;;27.40;;
20776;SDS011;10548;47.504;8.248;2024-01-10T06:48:22;60.77;;;27.93;;
20776;SDS011;10548;47.504;8.248;2024-01-10T06:50:49;68.87;;;29.47;;
20776;SDS011;10548;47.504;8.248;2024-01-10T06:53:16;67.20;;;30.50;;
20776;SDS011;10548;47.504;8.248;2024-01-10T06:55:43;65.47;;;29.97;;
20776;SDS011;10548;47.504;8.248;2024-01-10T06:58:10;65.47;;;30.70;;
20776;SDS011;10548;47.504;8.248;2024-01-10T07:00:37;66.70;;;30.60;;
20776;SDS011;10548;47.504;8.248;2024-01-10T07:03:05;69.10;;;30.43;;
20776;SDS011;10548;47.504;8.248;2024-01-10T07:05:32;66.93;;;31.43;;
20776;SDS011;10548;47.504;8.248;2024-01-10T07:07:59;64.97;;;29.47;;
20776;SDS011;10548;47.504;8.248;2024-01-10T07:10:29;66.80;;;31.13;;
20776;SDS011;10548;47.504;8.248;2024-01-10T07:12:56;62.27;;;29.57;;
20776;SDS011;10548;47.504;8.248;2024-01-10T07:15:24;63.40;;;29.40;;
20776;SDS011;10548;47.504;8.248;2024-01-10T07:17:51;67.63;;;31.20;;
20776;SDS011;10548;47.504;8.248;2024-01-10T07:20:18;74.17;;;32.17;;
20776;SDS011;10548;47.504;8.248;2024-01-10T07:22:46;66.70;;;29.67;;
20776;SDS011;10548;47.504;8.248;2024-01-10T07:25:13;75.30;;;32.10;;
20776;SDS011;10548;47.504;8.248;2024-01-10T07:27:41;61.33;;;33.93;;
20776;SDS011;10548;47.504;8.248;2024-01-10T07:30:08;65.70;;;31.90;;
20776;SDS011;10548;47.504;8.248;2024-01-10T07:32:45;68.57;;;31.67;;
20776;SDS011;10548;47.504;8.248;2024-01-10T07:35:13;61.20;;;29.07;;
20776;SDS011;10548;47.504;8.248;2024-01-10T07:37:41;58.77;;;27.43;;
20776;SDS011;10548;47.504;8.248;2024-01-10T07:40:09;69.50;;;31.97;;
20776;SDS011;10548;47.504;8.248;2024-01-10T07:42:40;62.90;;;28.40;;
20776;SDS011;10548;47.504;8.248;2024-01-10T07:45:09;61.70;;;29.27;;
20776;SDS011;10548;47.504;8.248;2024-01-10T07:47:36;57.47;;;28.83;;
20776;SDS011;10548;47.504;8.248;2024-01-10T07:50:05;66.87;;;30.13;;
20776;SDS011;10548;47.504;8.248;2024-01-10T07:52:33;62.17;;;28.83;;
20776;SDS011;10548;47.504;8.248;2024-01-10T07:55:00;55.60;;;28.03;;
20776;SDS011;10548;47.504;8.248;2024-01-10T07:57:28;58.13;;;27.30;;
20776;SDS011;10548;47.504;8.248;2024-01-10T07:59:55;61.87;;;28.23;;
20776;SDS011;10548;47.504;8.248;2024-01-10T08:02:23;61.83;;;30.00;;
20776;SDS011;10548;47.504;8.248;2024-01-10T08:04:51;61.00;;;29.33;;
20776;SDS011;10548;47.504;8.248;2024-01-10T08:07:19;60.67;;;28.83;;
20776;SDS011;10548;47.504;8.248;2024-01-10T08:09:46;59.00;;;27.97;;
20776;SDS011;10548;47.504;8.248;2024-01-10T08:12:13;56.13;;;28.93;;
20776;SDS011;10548;47.504;8.248;2024-01-10T08:14:41;59.50;;;28.97;;
20776;SDS011;10548;47.504;8.248;2024-01-10T08:17:12;58.27;;;28.47;;
20776;SDS011;10548;47.504;8.248;2024-01-10T08:19:39;56.60;;;27.23;;
20776;SDS011;10548;47.504;8.248;2024-01-10T08:22:06;59.23;;;28.93;;
20776;SDS011;10548;47.504;8.248;2024-01-10T08:24:34;57.00;;;28.77;;
20776;SDS011;10548;47.504;8.248;2024-01-10T08:27:01;62.73;;;29.93;;
20776;SDS011;10548;47.504;8.248;2024-01-10T08:29:29;59.67;;;27.23;;
20776;SDS011;10548;47.504;8.248;2024-01-10T08:31:58;58.33;;;29.10;;
20776;SDS011;10548;47.504;8.248;2024-01-10T08:34:25;54.77;;;25.97;;
20776;SDS011;10548;47.504;8.248;2024-01-10T08:36:53;55.33;;;29.43;;
20776;SDS011;10548;47.504;8.248;2024-01-10T08:39:20;59.67;;;28.93;;
20776;SDS011;10548;47.504;8.248;2024-01-10T08:41:48;58.03;;;28.60;;
20776;SDS011;10548;47.504;8.248;2024-01-10T08:44:15;59.40;;;28.20;;
20776;SDS011;10548;47.504;8.248;2024-01-10T08:46:43;57.43;;;28.57;;
20776;SDS011;10548;47.504;8.248;2024-01-10T08:49:10;55.17;;;28.83;;
20776;SDS011;10548;47.504;8.248;2024-01-10T08:51:37;59.30;;;29.30;;
20776;SDS011;10548;47.504;8.248;2024-01-10T08:54:04;61.20;;;29.97;;
20776;SDS011;10548;47.504;8.248;2024-01-10T08:56:31;53.70;;;29.00;;
20776;SDS011;10548;47.504;8.248;2024-01-10T08:58:58;55.70;;;26.17;;
20776;SDS011;10548;47.504;8.248;2024-01-10T09:01:28;65.73;;;31.03;;
20776;SDS011;10548;47.504;8.248;2024-01-10T09:03:55;64.23;;;31.60;;
20776;SDS011;10548;47.504;8.248;2024-01-10T09:06:22;55.37;;;28.00;;
20776;SDS011;10548;47.504;8.248;2024-01-10T09:08:49;59.73;;;28.10;;
20776;SDS011;10548;47.504;8.248;2024-01-10T09:11:16;64.93;;;30.83;;
20776;SDS011;10548;47.504;8.248;2024-01-10T09:13:43;67.77;;;31.07;;
20776;SDS011;10548;47.504;8.248;2024-01-10T09:16:10;62.57;;;29.83;;
20776;SDS011;10548;47.504;8.248;2024-01-10T09:18:38;63.57;;;29.70;;
20776;SDS011;10548;47.504;8.248;2024-01-10T09:21:06;69.77;;;31.83;;
20776;SDS011;10548;47.504;8.248;2024-01-10T09:23:33;63.83;;;29.67;;
20776;SDS011;10548;47.504;8.248;2024-01-10T09:26:00;64.97;;;29.83;;
20776;SDS011;10548;47.504;8.248;2024-01-10T09:28:27;59.87;;;28.57;;
20776;SDS011;10548;47.504;8.248;2024-01-10T09:30:55;68.60;;;32.60;;
20776;SDS011;10548;47.504;8.248;2024-01-10T09:33:22;64.30;;;30.87;;
20776;SDS011;10548;47.504;8.248;2024-01-10T09:35:49;70.70;;;31.10;;
20776;SDS011;10548;47.504;8.248;2024-01-10T09:38:16;63.33;;;30.60;;
20776;SDS011;10548;47.504;8.248;2024-01-10T09:40:44;64.83;;;31.23;;
20776;SDS011;10548;47.504;8.248;2024-01-10T09:43:11;68.33;;;30.23;;
20776;SDS011;10548;47.504;8.248;2024-01-10T09:45:42;67.13;;;31.13;;
20776;SDS011;10548;47.504;8.248;2024-01-10T09:48:13;67.80;;;30.83;;
20776;SDS011;10548;47.504;8.248;2024-01-10T09:50:42;86.87;;;37.43;;
20776;SDS011;10548;47.504;8.248;2024-01-10T09:53:11;69.97;;;31.87;;
20776;SDS011;10548;47.504;8.248;2024-01-10T09:55:48;70.43;;;32.77;;
20776;SDS011;10548;47.504;8.248;2024-01-10T09:58:15;73.80;;;34.80;;
20776;SDS011;10548;47.504;8.248;2024-01-10T10:00:43;73.33;;;32.63;;
20776;SDS011;10548;47.504;8.248;2024-01-10T10:03:10;77.90;;;34.80;;
20776;SDS011;10548;47.504;8.248;2024-01-10T10:05:39;98.03;;;38.17;;
20776;SDS011;10548;47.504;8.248;2024-01-10T10:08:10;71.17;;;32.30;;
20776;SDS011;10548;47.504;8.248;2024-01-10T10:10:39;75.80;;;33.77;;
20776;SDS011;10548;47.504;8.248;2024-01-10T10:13:10;82.53;;;37.37;;
20776;SDS011;10548;47.504;8.248;2024-01-10T10:15:40;75.17;;;33.87;;
20776;SDS011;10548;47.504;8.248;2024-01-10T10:18:13;89.33;;;36.53;;
20776;SDS011;10548;47.504;8.248;2024-01-10T10:20:41;76.90;;;35.07;;
20776;SDS011;10548;47.504;8.248;2024-01-10T10:23:09;76.93;;;32.80;;
20776;SDS011;10548;47.504;8.248;2024-01-10T10:25:43;73.80;;;34.07;;
20776;SDS011;10548;47.504;8.248;2024-01-10T10:28:11;79.50;;;34.10;;
20776;SDS011;10548;47.504;8.248;2024-01-10T10:30:54;69.50;;;32.00;;
20776;SDS011;10548;47.504;8.248;2024-01-10T10:33:22;68.07;;;31.50;;
20776;SDS011;10548;47.504;8.248;2024-01-10T10:35:50;80.47;;;34.07;;
20776;SDS011;10548;47.504;8.248;2024-01-10T10:38:21;78.07;;;33.90;;
20776;SDS011;10548;47.504;8.248;2024-01-10T10:40:49;74.93;;;35.83;;
20776;SDS011;10548;47.504;8.248;2024-01-10T10:43:18;78.70;;;35.70;;
20776;SDS011;10548;47.504;8.248;2024-01-10T10:45:48;80.30;;;33.90;;
20776;SDS011;10548;47.504;8.248;2024-01-10T10:48:17;73.73;;;34.90;;
20776;SDS011;10548;47.504;8.248;2024-01-10T10:50:54;74.27;;;33.27;;
20776;SDS011;10548;47.504;8.248;2024-01-10T10:53:30;70.53;;;33.27;;
20776;SDS011;10548;47.504;8.248;2024-01-10T10:56:00;70.37;;;32.80;;
20776;SDS011;10548;47.504;8.248;2024-01-10T10:58:34;76.77;;;35.90;;
20776;SDS011;10548;47.504;8.248;2024-01-10T11:01:06;74.23;;;34.93;;
20776;SDS011;10548;47.504;8.248;2024-01-10T11:03:35;70.23;;;34.07;;
20776;SDS011;10548;47.504;8.248;2024-01-10T11:06:04;60.93;;;31.13;;
20776;SDS011;10548;47.504;8.248;2024-01-10T11:08:35;68.07;;;33.13;;
20776;SDS011;10548;47.504;8.248;2024-01-10T11:11:21;70.37;;;33.33;;
20776;SDS011;10548;47.504;8.248;2024-01-10T11:17:23;68.10;;;32.90;;
20776;SDS011;10548;47.504;8.248;2024-01-10T11:20:13;75.17;;;33.97;;
20776;SDS011;10548;47.504;8.248;2024-01-10T11:23:37;64.80;;;31.83;;
20776;SDS011;10548;47.504;8.248;2024-01-10T11:26:14;69.77;;;32.77;;
20776;SDS011;10548;47.504;8.248;2024-01-10T11:28:42;65.97;;;32.93;;
20776;SDS011;10548;47.504;8.248;2024-01-10T11:31:09;61.40;;;29.33;;
20776;SDS011;10548;47.504;8.248;2024-01-10T11:33:37;64.77;;;30.30;;
20776;SDS011;10548;47.504;8.248;2024-01-10T11:39:04;69.30;;;32.60;;
20776;SDS011;10548;47.504;8.248;2024-01-10T11:41:40;65.33;;;32.00;;
20776;SDS011;10548;47.504;8.248;2024-01-10T11:44:25;57.93;;;28.47;;
20776;SDS011;10548;47.504;8.248;2024-01-10T11:46:53;53.97;;;26.30;;
20776;SDS011;10548;47.504;8.248;2024-01-10T11:49:22;64.00;;;30.87;;
20776;SDS011;10548;47.504;8.248;2024-01-10T11:51:54;63.60;;;30.47;;
20776;SDS011;10548;47.504;8.248;2024-01-10T11:54:35;73.20;;;33.70;;
20776;SDS011;10548;47.504;8.248;2024-01-10T11:57:07;67.70;;;31.67;;
20776;SDS011;10548;47.504;8.248;2024-01-10T11:59:40;68.17;;;33.50;;
20776;SDS011;10548;47.504;8.248;2024-01-10T12:02:09;68.10;;;30.63;;
20776;SDS011;10548;47.504;8.248;2024-01-10T12:04:37;67.73;;;30.73;;
20776;SDS011;10548;47.504;8.248;2024-01-10T12:07:14;67.03;;;31.20;;
20776;SDS011;10548;47.504;8.248;2024-01-10T12:09:42;67.43;;;32.37;;
20776;SDS011;10548;47.504;8.248;2024-01-10T12:12:09;62.57;;;29.77;;
20776;SDS011;10548;47.504;8.248;2024-01-10T12:14:38;59.93;;;29.67;;
20776;SDS011;10548;47.504;8.248;2024-01-10T12:17:06;57.80;;;27.10;;
20776;SDS011;10548;47.504;8.248;2024-01-10T12:19:36;49.47;;;24.57;;
20776;SDS011;10548;47.504;8.248;2024-01-10T12:22:04;44.67;;;22.50;;
20776;SDS011;10548;47.504;8.248;2024-01-10T12:24:34;46.90;;;22.67;;
20776;SDS011;10548;47.504;8.248;2024-01-10T12:27:10;57.73;;;26.57;;
20776;SDS011;10548;47.504;8.248;2024-01-10T12:29:38;60.57;;;28.43;;
20776;SDS011;10548;47.504;8.248;2024-01-10T12:32:06;54.27;;;26.87;;
20776;SDS011;10548;47.504;8.248;2024-01-10T12:34:37;63.70;;;28.57;;
20776;SDS011;10548;47.504;8.248;2024-01-10T12:37:05;61.50;;;29.97;;
20776;SDS011;10548;47.504;8.248;2024-01-10T12:39:32;64.30;;;33.83;;
20776;SDS011;10548;47.504;8.248;2024-01-10T12:42:00;59.70;;;28.90;;
20776;SDS011;10548;47.504;8.248;2024-01-10T12:44:28;61.50;;;30.43;;
20776;SDS011;10548;47.504;8.248;2024-01-10T12:46:57;59.97;;;27.37;;
20776;SDS011;10548;47.504;8.248;2024-01-10T12:49:24;72.40;;;35.03;;
20776;SDS011;10548;47.504;8.248;2024-01-10T12:51:51;55.77;;;26.97;;
20776;SDS011;10548;47.504;8.248;2024-01-10T12:54:19;63.27;;;31.50;;
20776;SDS011;10548;47.504;8.248;2024-01-10T12:56:46;66.43;;;32.53;;
20776;SDS011;10548;47.504;8.248;2024-01-10T12:59:13;62.90;;;29.63;;
20776;SDS011;10548;47.504;8.248;2024-01-10T13:01:40;60.77;;;27.57;;
20776;SDS011;10548;47.504;8.248;2024-01-10T13:04:08;64.77;;;29.60;;
20776;SDS011;10548;47.504;8.248;2024-01-10T13:06:38;68.67;;;31.60;;
20776;SDS011;10548;47.504;8.248;2024-01-10T13:09:06;60.87;;;29.43;;
20776;SDS011;10548;47.504;8.248;2024-01-10T13:11:34;64.07;;;28.83;;
20776;SDS011;10548;47.504;8.248;2024-01-10T13:14:01;59.67;;;28.43;;
20776;SDS011;10548;47.504;8.248;2024-01-10T13:16:29;65.17;;;29.40;;
20776;SDS011;10548;47.504;8.248;2024-01-10T13:19:02;59.17;;;27.30;;
20776;SDS011;10548;47.504;8.248;2024-01-10T13:21:29;61.60;;;29.00;;
20776;SDS011;10548;47.504;8.248;2024-01-10T13:23:56;60.33;;;29.43;;
20776;SDS011;10548;47.504;8.248;2024-01-10T13:26:23;62.67;;;29.20;;
20776;SDS011;10548;47.504;8.248;2024-01-10T13:28:50;63.93;;;29.63;;
20776;SDS011;10548;47.504;8.248;2024-01-10T13:31:17;60.87;;;27.73;;
20776;SDS011;10548;47.504;8.248;2024-01-10T13:33:45;62.47;;;29.67;;
20776;SDS011;10548;47.504;8.248;2024-01-10T13:36:13;58.53;;;29.47;;
20776;SDS011;10548;47.504;8.248;2024-01-10T13:38:41;62.17;;;29.20;;
20776;SDS011;10548;47.504;8.248;2024-01-10T13:41:08;68.60;;;31.07;;
20776;SDS011;10548;47.504;8.248;2024-01-10T13:43:36;67.83;;;30.40;;
20776;SDS011;10548;47.504;8.248;2024-01-10T13:46:03;68.73;;;31.03;;
20776;SDS011;10548;47.504;8.248;2024-01-10T13:48:35;67.03;;;30.30;;
20776;SDS011;10548;47.504;8.248;2024-01-10T13:51:02;61.57;;;30.00;;
20776;SDS011;10548;47.504;8.248;2024-01-10T13:53:29;66.33;;;29.50;;
20776;SDS011;10548;47.504;8.248;2024-01-10T13:55:57;58.57;;;27.53;;
20776;SDS011;10548;47.504;8.248;2024-01-10T13:58:24;66.60;;;30.77;;
20776;SDS011;10548;47.504;8.248;2024-01-10T14:00:51;54.90;;;28.17;;
20776;SDS011;10548;47.504;8.248;2024-01-10T14:03:18;63.87;;;28.90;;
20776;SDS011;10548;47.504;8.248;2024-01-10T14:05:46;60.50;;;27.77;;
20776;SDS011;10548;47.504;8.248;2024-01-10T14:08:13;61.83;;;28.50;;
20776;SDS011;10548;47.504;8.248;2024-01-10T14:10:40;61.17;;;28.80;;
20776;SDS011;10548;47.504;8.248;2024-01-10T14:13:08;65.83;;;28.70;;
20776;SDS011;10548;47.504;8.248;2024-01-10T14:15:36;59.07;;;26.93;;
20776;SDS011;10548;47.504;8.248;2024-01-10T14:18:03;54.53;;;26.97;;
20776;SDS011;10548;47.504;8.248;2024-01-10T14:20:31;62.73;;;28.30;;
20776;SDS011;10548;47.504;8.248;2024-01-10T14:22:59;66.47;;;29.67;;
20776;SDS011;10548;47.504;8.248;2024-01-10T14:25:27;63.43;;;29.43;;
20776;SDS011;10548;47.504;8.248;2024-01-10T14:27:55;65.07;;;29.83;;
20776;SDS011;10548;47.504;8.248;2024-01-10T14:30:22;59.40;;;28.37;;
20776;SDS011;10548;47.504;8.248;2024-01-10T14:32:51;68.63;;;28.27;;
20776;SDS011;10548;47.504;8.248;2024-01-10T14:35:19;64.17;;;29.83;;